createdAt,value
2018-06-23T00:02:44.775Z,89.01
2018-06-23T00:05:47.993Z,88.77
2018-06-23T00:08:50.269Z,88.61
2018-06-23T00:11:52.483Z,89.06
2018-06-23T00:14:54.685Z,89.78
2018-06-23T00:17:56.853Z,89.90
2018-06-23T00:20:59.185Z,89.71
2018-06-23T00:24:01.391Z,90.38
2018-06-23T00:27:03.874Z,89.95
2018-06-23T00:30:06.056Z,90.05
2018-06-23T00:33:08.287Z,89.76
2018-06-23T00:36:10.521Z,90.04
2018-06-23T00:39:12.728Z,90.36
2018-06-23T00:42:14.939Z,90.88
2018-06-23T00:45:17.180Z,91.04
2018-06-23T00:48:19.315Z,90.63
2018-06-23T00:51:21.592Z,90.78
2018-06-23T00:54:23.872Z,91.22
2018-06-23T00:57:26.102Z,91.07
2018-06-23T01:00:28.358Z,91.19
2018-06-23T01:03:30.509Z,90.99
2018-06-23T01:06:32.824Z,91.19
2018-06-23T01:09:35.137Z,91.62
2018-06-23T01:12:37.360Z,91.77
2018-06-23T01:15:39.520Z,91.66
2018-06-23T01:18:43.078Z,92.00
2018-06-23T01:21:45.272Z,91.82
2018-06-23T01:24:47.469Z,92.56
2018-06-23T01:27:49.620Z,92.04
2018-06-23T01:30:51.784Z,92.09
2018-06-23T01:33:54.025Z,92.63
2018-06-23T01:36:56.359Z,92.24
2018-06-23T01:39:58.607Z,92.33
2018-06-23T01:43:02.832Z,92.19
2018-06-23T01:46:05.014Z,92.08
2018-06-23T01:49:07.291Z,91.96
2018-06-23T01:52:09.545Z,91.39
2018-06-23T01:55:11.673Z,90.90
2018-06-23T01:58:13.824Z,90.87
2018-06-23T02:01:16.066Z,90.13
2018-06-23T02:04:18.353Z,90.49
2018-06-23T02:07:20.561Z,89.90
2018-06-23T02:10:22.710Z,89.97
2018-06-23T02:13:24.939Z,89.89
2018-06-23T02:16:32.949Z,90.56
2018-06-23T02:19:40.807Z,90.57
2018-06-23T02:22:48.793Z,90.70
2018-06-23T02:25:56.638Z,90.96
2018-06-23T02:29:04.585Z,90.31
2018-06-23T02:32:12.515Z,90.52
2018-06-23T02:35:14.705Z,90.07
2018-06-23T02:38:16.912Z,90.34
2018-06-23T02:41:19.246Z,90.56
2018-06-23T02:44:21.510Z,90.78
2018-06-23T02:47:23.697Z,90.77
2018-06-23T02:50:25.992Z,91.59
2018-06-23T02:53:28.285Z,91.60
2018-06-23T02:56:30.547Z,91.51
2018-06-23T02:59:32.741Z,91.85
2018-06-23T03:02:34.980Z,91.23
2018-06-23T03:05:37.281Z,91.85
2018-06-23T03:08:39.532Z,92.38
2018-06-23T03:11:41.846Z,92.11
2018-06-23T03:14:44.135Z,92.15
2018-06-23T03:17:46.308Z,91.85
2018-06-23T03:20:48.525Z,90.83
2018-06-23T03:23:50.789Z,89.68
2018-06-23T03:26:52.975Z,88.74
2018-06-23T03:29:55.253Z,88.29
2018-06-23T03:32:57.453Z,88.37
2018-06-23T03:35:59.652Z,87.59
2018-06-23T03:39:04.627Z,87.70
2018-06-23T03:42:06.928Z,87.88
2018-06-23T03:45:09.238Z,88.12
2018-06-23T03:48:11.489Z,88.21
2018-06-23T03:51:13.754Z,88.65
2018-06-23T03:54:15.927Z,88.93
2018-06-23T03:57:18.157Z,89.23
2018-06-23T04:00:20.413Z,89.44
2018-06-23T04:03:22.954Z,89.87
2018-06-23T04:06:26.185Z,89.11
2018-06-23T04:09:28.319Z,88.39
2018-06-23T04:12:30.622Z,87.91
2018-06-23T04:15:32.864Z,87.23
2018-06-23T04:18:35.101Z,87.16
2018-06-23T04:21:37.355Z,87.32
2018-06-23T04:24:42.246Z,87.56
2018-06-23T04:27:44.434Z,86.95
2018-06-23T04:30:46.793Z,86.50
2018-06-23T04:33:49.046Z,85.71
2018-06-23T04:36:51.366Z,84.53
2018-06-23T04:39:53.618Z,82.51
2018-06-23T04:42:55.950Z,78.51
2018-06-23T04:45:58.862Z,72.21
2018-06-23T04:49:01.017Z,71.47
2018-06-23T04:52:03.217Z,74.23
2018-06-23T04:55:05.516Z,68.70
2018-06-23T04:58:07.821Z,63.41
2018-06-23T05:01:09.988Z,61.75
2018-06-23T05:04:12.157Z,67.49
2018-06-23T05:07:14.498Z,69.42
2018-06-23T05:10:17.528Z,72.03
2018-06-23T05:13:19.721Z,76.71
2018-06-23T05:16:21.890Z,77.30
2018-06-23T05:19:24.179Z,74.69
2018-06-23T05:22:26.450Z,74.97
2018-06-23T05:25:28.603Z,74.89
2018-06-23T05:28:30.815Z,73.88
2018-06-23T05:31:33.001Z,72.82
2018-06-23T05:34:35.184Z,71.57
2018-06-23T05:37:37.417Z,69.92
2018-06-23T05:40:39.558Z,70.57
2018-06-23T05:43:41.783Z,71.50
2018-06-23T05:46:45.001Z,72.38
2018-06-23T05:49:47.271Z,73.77
2018-06-23T05:52:49.477Z,71.62
2018-06-23T05:55:51.741Z,68.90
2018-06-23T05:58:54.061Z,65.35
2018-06-23T06:01:56.263Z,59.39
2018-06-23T06:04:58.526Z,61.25
2018-06-23T06:08:00.776Z,58.96
2018-06-23T06:11:03.033Z,61.59
2018-06-23T06:14:05.244Z,64.65
2018-06-23T06:17:32.540Z,60.76
2018-06-23T06:20:35.150Z,62.48
2018-06-23T06:23:37.425Z,64.77
2018-06-23T06:26:39.742Z,65.77
2018-06-23T06:29:41.960Z,65.95
2018-06-23T06:32:44.251Z,59.31
2018-06-23T06:35:46.476Z,62.55
2018-06-23T06:38:50.211Z,62.35
2018-06-23T06:41:52.530Z,62.00
2018-06-23T06:44:54.684Z,54.91
2018-06-23T06:47:56.843Z,51.28
2018-06-23T06:50:59.165Z,49.36
2018-06-23T06:54:01.430Z,49.02
2018-06-23T06:57:03.775Z,47.37
2018-06-23T07:00:06.182Z,47.91
2018-06-23T07:03:08.361Z,54.20
2018-06-23T07:06:10.663Z,56.46
2018-06-23T07:09:13.671Z,58.68
2018-06-23T07:12:15.909Z,58.99
2018-06-23T07:15:18.213Z,54.04
2018-06-23T07:18:20.417Z,47.63
2018-06-23T07:21:22.585Z,47.49
2018-06-23T07:24:24.897Z,51.30
2018-06-23T07:27:27.170Z,53.47
2018-06-23T07:30:30.038Z,53.43
2018-06-23T07:33:32.386Z,51.43
2018-06-23T07:36:34.584Z,47.20
2018-06-23T07:39:36.865Z,51.22
2018-06-23T07:42:39.188Z,51.01
2018-06-23T07:45:41.369Z,52.03
2018-06-23T07:48:43.919Z,52.70
2018-06-23T07:51:46.167Z,50.03
2018-06-23T07:54:48.419Z,51.37
2018-06-23T07:57:50.749Z,50.32
2018-06-23T08:00:52.968Z,50.44
2018-06-23T08:03:55.559Z,51.13
2018-06-23T08:06:57.834Z,52.74
2018-06-23T08:10:00.100Z,51.49
2018-06-23T08:13:02.404Z,50.55
2018-06-23T08:16:05.203Z,48.32
2018-06-23T08:19:08.459Z,49.30
2018-06-23T08:22:10.712Z,50.16
2018-06-23T08:25:12.962Z,51.21
2018-06-23T08:28:15.118Z,51.71
2018-06-23T08:31:17.415Z,55.11
2018-06-23T08:34:19.749Z,55.63
2018-06-23T08:37:22.326Z,53.22
2018-06-23T08:40:24.619Z,51.56
2018-06-23T08:43:26.996Z,51.27
2018-06-23T08:46:30.161Z,50.51
2018-06-23T08:49:32.506Z,50.08
2018-06-23T08:52:34.783Z,53.19
2018-06-23T08:55:37.112Z,54.09
2018-06-23T08:58:39.527Z,51.97
2018-06-23T09:01:41.823Z,50.93
2018-06-23T09:04:44.139Z,49.85
2018-06-23T09:09:40.004Z,53.70
2018-06-23T09:12:43.265Z,52.29
2018-06-23T09:15:46.511Z,55.10
2018-06-23T09:18:50.447Z,52.53
2018-06-23T09:21:53.715Z,53.20
2018-06-23T09:24:56.949Z,54.64
2018-06-23T09:28:00.049Z,54.90
2018-06-23T09:31:03.580Z,51.92
2018-06-23T09:34:06.722Z,56.04
2018-06-23T09:37:09.963Z,55.77
2018-06-23T09:40:13.211Z,55.99
2018-06-23T09:43:16.387Z,55.64
2018-06-23T09:46:19.782Z,56.22
2018-06-23T09:49:22.948Z,54.83
2018-06-23T09:52:25.904Z,55.83
2018-06-23T09:55:29.111Z,57.57
2018-06-23T09:58:32.214Z,56.13
2018-06-23T10:01:35.713Z,56.27
2018-06-23T10:04:39.991Z,55.22
2018-06-23T10:07:43.299Z,55.34
2018-06-23T10:10:46.577Z,54.88
2018-06-23T10:13:49.633Z,55.88
2018-06-23T10:16:53.038Z,55.16
2018-06-23T10:19:56.389Z,57.44
2018-06-23T10:22:59.563Z,57.89
2018-06-23T10:26:02.856Z,56.38
2018-06-23T10:29:06.020Z,56.78
2018-06-23T10:32:09.057Z,57.08
2018-06-23T10:35:12.235Z,56.03
2018-06-23T10:38:15.509Z,55.48
2018-06-23T10:41:18.550Z,55.32
2018-06-23T10:44:21.793Z,55.31
2018-06-23T10:47:25.140Z,55.81
2018-06-23T10:50:28.373Z,57.17
2018-06-23T10:53:31.565Z,57.32
2018-06-23T10:56:35.154Z,55.11
2018-06-23T10:59:38.313Z,56.75
2018-06-23T11:02:41.539Z,58.18
2018-06-23T11:05:44.838Z,59.10
2018-06-23T11:08:49.511Z,58.81
2018-06-23T11:11:53.690Z,57.93
2018-06-23T11:14:56.915Z,58.45
2018-06-23T11:18:00.351Z,59.36
2018-06-23T11:21:03.572Z,59.47
2018-06-23T11:24:06.876Z,59.48
2018-06-23T11:27:10.062Z,59.83
2018-06-23T11:30:13.279Z,61.67
2018-06-23T11:33:16.505Z,61.44
2018-06-23T11:36:19.853Z,60.85
2018-06-23T11:39:23.201Z,61.13
2018-06-23T11:42:26.591Z,60.62
2018-06-23T11:45:29.844Z,59.66
2018-06-23T11:48:33.132Z,60.13
2018-06-23T11:51:36.389Z,61.54
2018-06-23T11:54:39.501Z,62.23
2018-06-23T11:57:42.825Z,62.21
2018-06-23T12:00:46.252Z,63.85
2018-06-23T12:03:49.390Z,62.01
2018-06-23T12:06:52.583Z,57.30
2018-06-23T12:09:55.751Z,56.79
2018-06-23T12:12:59.673Z,56.11
2018-06-23T12:16:02.921Z,55.56
2018-06-23T12:19:06.243Z,56.05
2018-06-23T12:22:09.585Z,55.55
2018-06-23T12:25:12.862Z,56.36
2018-06-23T12:28:16.033Z,56.61
2018-06-23T12:31:19.224Z,56.82
2018-06-23T12:34:22.348Z,55.86
2018-06-23T12:37:25.482Z,54.91
2018-06-23T12:40:28.865Z,55.43
2018-06-23T12:43:32.131Z,53.89
2018-06-23T12:46:54.746Z,54.86
2018-06-23T12:49:58.272Z,53.67
2018-06-23T12:53:03.536Z,52.60
2018-06-23T12:56:06.758Z,53.90
2018-06-23T12:59:09.864Z,55.63
2018-06-23T13:02:13.144Z,55.50
2018-06-23T13:05:16.213Z,56.16
2018-06-23T13:08:19.454Z,56.53
2018-06-23T13:11:22.788Z,55.91
2018-06-23T13:14:25.915Z,56.52
2018-06-23T13:17:29.252Z,56.57
2018-06-23T13:20:33.671Z,57.11
2018-06-23T13:23:37.001Z,55.99
2018-06-23T13:26:40.146Z,56.90
2018-06-23T13:29:43.366Z,55.49
2018-06-23T13:32:47.574Z,56.39
2018-06-23T13:35:50.677Z,56.56
2018-06-23T13:38:54.883Z,53.41
2018-06-23T13:41:58.296Z,53.21
2018-06-23T13:45:02.125Z,52.47
2018-06-23T13:48:05.374Z,54.34
2018-06-23T13:51:08.649Z,53.89
2018-06-23T13:54:11.918Z,54.65
2018-06-23T13:57:15.392Z,56.42
2018-06-23T14:00:18.935Z,56.90
2018-06-23T14:03:22.396Z,57.03
2018-06-23T14:06:26.607Z,58.16
2018-06-23T14:09:29.887Z,57.71
2018-06-23T14:12:33.094Z,57.95
2018-06-23T14:15:37.493Z,59.16
2018-06-23T14:18:40.910Z,57.64
2018-06-23T14:21:44.058Z,57.11
2018-06-23T14:24:47.419Z,57.51
2018-06-23T14:27:51.029Z,58.84
2018-06-23T14:30:54.303Z,60.22
2018-06-23T14:33:57.636Z,58.99
2018-06-23T14:37:01.190Z,59.32
2018-06-23T14:40:04.858Z,58.74
2018-06-23T14:43:08.087Z,58.10
2018-06-23T14:46:11.414Z,59.08
2018-06-23T14:49:14.370Z,58.64
2018-06-23T14:52:17.404Z,58.62
2018-06-23T14:55:20.640Z,58.65
2018-06-23T14:58:23.936Z,60.18
2018-06-23T15:01:27.359Z,59.43
2018-06-23T15:04:30.610Z,58.90
2018-06-23T15:07:33.987Z,56.96
2018-06-23T15:10:55.327Z,56.80
2018-06-23T15:13:58.703Z,59.18
2018-06-23T15:17:03.219Z,60.01
2018-06-23T15:20:06.599Z,61.89
2018-06-23T15:23:10.045Z,61.31
2018-06-23T15:26:13.064Z,61.61
2018-06-23T15:29:16.107Z,60.02
2018-06-23T15:32:24.661Z,60.40
2018-06-23T15:35:27.760Z,59.33
2018-06-23T15:38:33.018Z,56.71
2018-06-23T15:41:37.260Z,57.17
2018-06-23T15:44:40.372Z,57.53
2018-06-23T15:47:43.853Z,57.86
2018-06-23T15:50:47.265Z,56.27
2018-06-23T15:53:50.546Z,57.88
2018-06-23T15:56:53.851Z,56.61
2018-06-23T15:59:57.004Z,55.18
2018-06-23T16:03:00.157Z,53.98
2018-06-23T16:06:04.568Z,52.15
2018-06-23T16:09:09.094Z,54.81
2018-06-23T16:12:12.242Z,55.22
2018-06-23T16:15:15.768Z,56.79
2018-06-23T16:18:18.830Z,57.94
2018-06-23T16:21:22.012Z,57.21
2018-06-23T16:24:25.666Z,58.38
2018-06-23T16:27:28.658Z,58.17
2018-06-23T16:30:31.900Z,58.61
2018-06-23T16:33:34.994Z,58.46
2018-06-23T16:36:38.104Z,59.17
2018-06-23T16:39:41.478Z,57.55
2018-06-23T16:42:44.691Z,54.41
2018-06-23T16:45:48.837Z,52.22
2018-06-23T16:48:52.248Z,52.40
2018-06-23T16:51:55.343Z,53.34
2018-06-23T16:54:58.349Z,55.44
2018-06-23T16:58:01.600Z,55.04
2018-06-23T17:01:04.761Z,53.45
2018-06-23T17:04:07.987Z,51.11
2018-06-23T17:07:11.015Z,49.69
2018-06-23T17:10:14.320Z,51.69
2018-06-23T17:13:17.561Z,49.76
2018-06-23T17:16:29.855Z,49.12
2018-06-23T17:19:33.056Z,47.74
2018-06-23T17:22:36.147Z,50.29
2018-06-23T17:25:39.116Z,51.78
2018-06-23T17:28:42.852Z,52.17
2018-06-23T17:31:46.056Z,53.09
2018-06-23T17:34:49.160Z,55.69
2018-06-23T17:37:52.334Z,56.05
2018-06-23T17:40:55.487Z,57.22
2018-06-23T17:43:58.745Z,58.64
2018-06-23T17:47:01.894Z,57.31
2018-06-23T17:50:05.156Z,57.28
2018-06-23T17:53:08.361Z,55.73
2018-06-23T17:56:11.467Z,55.12
2018-06-23T17:59:14.738Z,55.92
2018-06-23T18:02:18.243Z,55.84
2018-06-23T18:05:21.292Z,56.85
2018-06-23T18:08:24.465Z,57.75
2018-06-23T18:11:27.665Z,57.25
2018-06-23T18:14:30.870Z,58.00
2018-06-23T18:17:34.167Z,57.78
2018-06-23T18:20:38.364Z,59.20
2018-06-23T18:23:41.522Z,58.88
2018-06-23T18:26:44.645Z,59.34
2018-06-23T18:29:47.828Z,59.46
2018-06-23T18:32:50.934Z,59.36
2018-06-23T18:35:54.093Z,61.08
2018-06-23T18:38:57.346Z,62.97
2018-06-23T18:42:00.504Z,63.16
2018-06-23T18:45:03.672Z,64.23
2018-06-23T18:48:06.743Z,64.76
2018-06-23T18:51:09.839Z,65.13
2018-06-23T18:54:13.022Z,65.20
2018-06-23T18:57:16.101Z,66.61
2018-06-23T19:00:20.274Z,68.01
2018-06-23T19:03:23.441Z,67.38
2018-06-23T19:06:26.520Z,67.58
2018-06-23T19:09:29.537Z,68.21
2018-06-23T19:12:32.905Z,68.09
2018-06-23T19:15:36.065Z,68.57
2018-06-23T19:18:39.176Z,69.02
2018-06-23T19:21:42.330Z,70.28
2018-06-23T19:24:45.387Z,70.26
2018-06-23T19:27:48.566Z,73.03
2018-06-23T19:30:51.685Z,75.54
2018-06-23T19:33:54.733Z,76.82
2018-06-23T19:36:57.825Z,78.22
2018-06-23T19:40:00.854Z,79.65
2018-06-23T19:43:04.106Z,81.50
2018-06-23T19:46:07.190Z,80.96
2018-06-23T19:49:10.193Z,82.11
2018-06-23T19:52:13.343Z,83.14
2018-06-23T19:55:16.629Z,83.29
2018-06-23T19:58:19.886Z,83.59
2018-06-23T20:01:23.096Z,83.46
2018-06-23T20:04:27.262Z,84.30
2018-06-23T20:07:30.481Z,84.41
2018-06-23T20:10:33.532Z,84.90
2018-06-23T20:13:36.672Z,85.19
2018-06-23T20:16:39.912Z,85.65
2018-06-23T20:19:42.863Z,85.81
2018-06-23T20:22:45.921Z,86.33
2018-06-23T20:25:48.999Z,86.19
2018-06-23T20:28:52.653Z,85.81
2018-06-23T20:31:56.761Z,84.66
2018-06-23T20:35:00.049Z,85.04
2018-06-23T20:38:03.205Z,85.09
2018-06-23T20:41:06.294Z,86.20
2018-06-23T20:44:09.332Z,87.30
2018-06-23T20:47:12.528Z,86.86
2018-06-23T20:50:15.739Z,87.03
2018-06-23T20:53:18.817Z,87.46
2018-06-23T20:56:21.874Z,87.61
2018-06-23T20:59:24.922Z,88.30
2018-06-23T21:02:28.163Z,87.84
2018-06-23T21:05:31.179Z,87.77
2018-06-23T21:08:34.856Z,88.00
2018-06-23T21:11:38.018Z,87.82
2018-06-23T21:14:41.228Z,88.27
2018-06-23T21:17:44.356Z,88.83
2018-06-23T21:20:47.447Z,89.01
2018-06-23T21:23:50.588Z,89.59
2018-06-23T21:26:53.732Z,90.54
2018-06-23T21:29:56.878Z,90.03
2018-06-23T21:33:00.066Z,90.09
2018-06-23T21:36:03.206Z,91.07
2018-06-23T21:39:07.233Z,90.25
2018-06-23T21:42:10.237Z,90.22
2018-06-23T21:45:13.341Z,89.67
2018-06-23T21:48:16.474Z,89.23
2018-06-23T21:51:19.542Z,88.95
2018-06-23T21:54:22.639Z,89.28
2018-06-23T21:57:26.601Z,88.53
2018-06-23T22:00:35.246Z,89.33
2018-06-23T22:03:39.386Z,88.94
2018-06-23T22:06:42.460Z,88.84
2018-06-23T22:09:45.524Z,88.56
2018-06-23T22:12:48.678Z,88.57
2018-06-23T22:15:51.712Z,88.39
2018-06-23T22:18:54.703Z,87.60
2018-06-23T22:21:57.753Z,87.66
2018-06-23T22:25:00.798Z,88.03
2018-06-23T22:28:03.970Z,87.85
2018-06-23T22:31:07.135Z,87.58
2018-06-23T22:34:10.281Z,87.84
2018-06-23T22:37:13.425Z,87.64
2018-06-23T22:40:16.490Z,87.22
2018-06-23T22:43:19.487Z,87.72
2018-06-23T22:46:22.701Z,88.08
2018-06-23T22:49:26.803Z,88.87
2018-06-23T22:52:29.943Z,88.78
2018-06-23T22:55:33.286Z,88.64
2018-06-23T22:58:36.430Z,89.27
2018-06-23T23:01:39.565Z,89.38
2018-06-23T23:04:42.729Z,89.81
2018-06-23T23:07:46.724Z,89.87
2018-06-23T23:10:51.558Z,89.84
2018-06-23T23:13:55.573Z,89.84
2018-06-23T23:17:00.041Z,90.19
2018-06-23T23:20:03.238Z,89.86
2018-06-23T23:23:06.344Z,89.80
2018-06-23T23:26:09.433Z,90.02
2018-06-23T23:29:13.550Z,90.10
2018-06-23T23:32:16.859Z,90.63
2018-06-23T23:35:20.206Z,91.08
2018-06-23T23:38:23.296Z,91.47
2018-06-23T23:41:26.333Z,91.43
2018-06-23T23:44:29.405Z,91.61
2018-06-23T23:47:32.561Z,91.84
2018-06-23T23:50:35.686Z,91.90
2018-06-23T23:53:38.801Z,91.69
2018-06-23T23:56:41.785Z,92.47
2018-06-23T23:59:44.803Z,92.08
